KCNC

Chariton Municipal Airport

Chariton, Iowa, USA
METAR KCNC 210515Z AUTO 36008KT 10SM FEW015 OVC020 19/18 A2988 RMK AO2
Observed Flight Rules
Aug-21 @ 05:15 UTC (9 hours ago) Marginal Visual Flight Rules
Wind Visibility Clouds
360° at 8 knots 10 miles
  • Few at 1,500' AGL
  • Overcast at 2,000' AGL
Temperatures Readings
Current 19°C / 66°F
Dewpoint 18°C / 64°F
Humidity 94%
Altimeter 29.88" Hg
Pressure 1012 hPa
Elevation 320
METAR KCNC 210515Z AUTO 36008KT 10SM FEW015 OVC020 19/18 A2988 RMK AO2
Observed Flight Rules
Aug-21 @ 05:15 UTC
(9 hours ago)
MVFR
Wind Visibility
360° at 8 knots 10 miles
Clouds
  • Few at 1,500' AGL
  • Overcast at 2,000' AGL
Temperature Dewpoint
19°C / 66°F 18°C / 64°F
Humidity Altimeter Pressure
94% 29.88" Hg 1012 hPa